Time;durP1;ratioP1;P1;durP2;ratioP2;P2;SDS_P1;SDS_P2;PMS_P1;PMS_P2;Temp;Humidity;BMP_temperature;BMP_pressure;BME280_temperature;BME280_humidity;BME280_pressure;Samples;Min_cycle;Max_cycle;Signal;HPM_P1;HPM_P2
2023/04/07 18:58:07;;;;;;;11.57;5.10;;;;;;;10.16;83.47;96275.09;5077410;27;20400;-71
2023/04/07 19:00:34;;;;;;;10.23;4.50;;;;;;;10.01;83.86;96283.91;5069911;28;21293;-71
2023/04/07 19:03:00;;;;;;;11.90;4.00;;;;;;;9.94;84.72;96285.53;5069642;28;20280;-72
2023/04/07 19:05:27;;;;;;;9.47;4.57;;;;;;;9.88;84.13;96291.53;5071143;28;20200;-71
2023/04/07 19:07:53;;;;;;;12.17;4.90;;;;;;;9.97;83.69;96283.44;5072561;28;20612;-71
2023/04/07 19:10:20;;;;;;;12.80;4.90;;;;;;;9.91;84.30;96291.16;5073471;28;20200;-72
2023/04/07 19:12:47;;;;;;;9.03;4.03;;;;;;;9.87;84.42;96292.50;5071781;28;20219;-72
2023/04/07 19:15:15;;;;;;;7.87;4.00;;;;;;;9.92;84.81;96296.25;5071962;28;20211;-72
2023/04/07 19:17:42;;;;;;;13.93;3.90;;;;;;;9.85;84.73;96305.00;5067589;28;20220;-71
2023/04/07 19:20:10;;;;;;;13.07;4.20;;;;;;;9.82;85.09;96307.97;5066454;28;20571;-71
2023/04/07 19:22:36;;;;;;;10.80;4.17;;;;;;;9.87;84.14;96306.47;5067612;28;20219;-72
2023/04/07 19:25:03;;;;;;;10.53;5.10;;;;;;;9.82;84.14;96308.78;5066847;28;20446;-71
2023/04/07 19:27:30;;;;;;;9.20;3.67;;;;;;;9.76;84.65;96314.75;5067696;28;20609;-71
2023/04/07 19:29:56;;;;;;;10.83;3.47;;;;;;;9.82;84.92;96311.41;5068583;28;20200;-71
2023/04/07 19:32:25;;;;;;;8.93;3.77;;;;;;;9.87;84.88;96305.66;5063806;28;20242;-72
2023/04/07 19:34:51;;;;;;;7.57;3.70;;;;;;;9.71;85.32;96314.44;5068720;28;20203;-71
2023/04/07 19:37:18;;;;;;;6.43;3.67;;;;;;;9.73;85.97;96312.44;5069355;28;20338;-71
2023/04/07 19:39:47;;;;;;;7.53;3.40;;;;;;;9.64;87.60;96314.47;5070232;28;20211;-71
2023/04/07 19:42:14;;;;;;;6.97;3.40;;;;;;;9.57;88.50;96324.84;5067481;28;20219;-71
2023/04/07 19:44:42;;;;;;;8.27;3.27;;;;;;;9.57;90.19;96329.28;5065077;28;20228;-72
2023/04/07 19:47:08;;;;;;;6.00;3.40;;;;;;;9.43;89.74;96327.34;5067001;28;20207;-70
2023/04/07 19:49:36;;;;;;;5.07;3.30;;;;;;;9.41;91.15;96327.50;5066159;28;20974;-72
2023/04/07 19:52:03;;;;;;;8.57;3.70;;;;;;;9.45;90.83;96330.63;5067558;28;20223;-71
2023/04/07 19:54:29;;;;;;;8.97;4.40;;;;;;;9.41;90.16;96324.88;5068832;28;20604;-71
2023/04/07 19:56:57;;;;;;;8.23;4.10;;;;;;;9.51;89.41;96329.94;5079874;28;20364;-70
2023/04/07 19:59:23;;;;;;;9.63;4.20;;;;;;;9.57;90.38;96334.53;5085936;28;20211;-71
2023/04/07 20:01:51;;;;;;;7.40;4.37;;;;;;;9.61;91.48;96325.31;5087212;28;20651;-71
2023/04/07 20:04:17;;;;;;;6.10;3.10;;;;;;;9.47;91.85;96340.00;5084056;28;20671;-71
2023/04/07 20:06:46;;;;;;;8.13;3.33;;;;;;;9.31;95.26;96337.38;5088296;28;20206;-72
2023/04/07 20:09:12;;;;;;;8.83;3.80;;;;;;;9.23;95.68;96336.59;5076358;28;20204;-71
2023/04/07 20:11:39;;;;;;;9.80;3.73;;;;;;;9.15;95.94;96336.56;5074543;28;20219;-71
2023/04/07 20:14:06;;;;;;;9.50;3.87;;;;;;;9.04;97.16;96334.31;5074043;28;20196;-71
2023/04/07 20:16:32;;;;;;;9.83;4.20;;;;;;;9.09;97.14;96334.63;5070597;28;20231;-71
2023/04/07 20:18:59;;;;;;;9.00;4.10;;;;;;;9.07;96.95;96341.03;5069761;28;20220;-71
2023/04/07 20:21:26;;;;;;;8.67;3.83;;;;;;;9.03;98.48;96340.53;5070623;28;21200;-72
2023/04/07 20:23:54;;;;;;;7.37;3.60;;;;;;;9.11;98.27;96338.75;5074015;28;20204;-71
2023/04/07 20:26:21;;;;;;;10.73;4.50;;;;;;;9.03;98.78;96343.16;5071750;28;20200;-71
2023/04/07 20:28:48;;;;;;;12.93;4.77;;;;;;;8.98;99.13;96337.56;5070748;28;20231;-71
2023/04/07 20:31:14;;;;;;;6.43;3.90;;;;;;;8.97;98.99;96333.31;5073321;28;20226;-71
2023/04/07 20:33:41;;;;;;;8.43;4.17;;;;;;;9.02;98.88;96344.16;5070440;28;20198;-72
2023/04/07 20:36:08;;;;;;;9.67;5.00;;;;;;;8.99;99.02;96339.22;5072402;28;20652;-71
2023/04/07 20:38:34;;;;;;;7.57;4.53;;;;;;;8.98;98.96;96337.56;5073338;28;20211;-71
2023/04/07 20:41:02;;;;;;;8.13;4.40;;;;;;;9.07;99.56;96341.84;5073370;28;20256;-71
2023/04/07 20:43:29;;;;;;;10.90;4.83;;;;;;;9.02;100.00;96343.34;5074550;28;20200;-70
2023/04/07 20:45:56;;;;;;;9.27;4.93;;;;;;;8.98;100.00;96342.84;5074000;28;20207;-72
2023/04/07 20:48:23;;;;;;;12.17;5.17;;;;;;;8.88;100.00;96342.19;5071793;28;21120;-71
2023/04/07 20:50:50;;;;;;;10.77;4.97;;;;;;;8.81;100.00;96346.47;5073495;28;20232;-71
2023/04/07 20:53:17;;;;;;;11.50;5.83;;;;;;;8.90;100.00;96348.09;5070995;28;20195;-72
2023/04/07 20:55:43;;;;;;;12.67;5.43;;;;;;;8.90;100.00;96349.91;5072274;28;20214;-71
2023/04/07 20:58:12;;;;;;;12.30;5.60;;;;;;;8.98;100.00;96353.34;5071518;28;20230;-71
2023/04/07 21:00:39;;;;;;;11.40;5.20;;;;;;;8.90;100.00;96350.72;5075185;28;20206;-71
2023/04/07 21:03:06;;;;;;;13.03;5.07;;;;;;;8.91;100.00;96360.25;5066381;28;20212;-71
2023/04/07 21:05:32;;;;;;;9.47;4.43;;;;;;;8.91;100.00;96355.00;5065586;28;20211;-71
2023/04/07 21:07:59;;;;;;;10.27;5.40;;;;;;;8.94;100.00;96364.38;5067956;28;20205;-71
2023/04/07 21:10:25;;;;;;;9.50;5.03;;;;;;;8.97;100.00;96370.09;5072467;28;20224;-71
2023/04/07 21:12:52;;;;;;;9.37;4.87;;;;;;;9.00;100.00;96361.91;5072091;28;20220;-71
2023/04/07 21:15:20;;;;;;;9.30;4.83;;;;;;;9.01;100.00;96367.97;5072579;28;20211;-71
2023/04/07 21:17:46;;;;;;;12.50;4.80;;;;;;;8.89;100.00;96362.22;5069966;28;20220;-71
2023/04/07 21:20:13;;;;;;;8.93;5.23;;;;;;;8.92;100.00;96368.94;5071157;28;20192;-71
2023/04/07 21:22:40;;;;;;;14.07;5.10;;;;;;;8.90;100.00;96365.69;5072866;28;20718;-71
2023/04/07 21:25:07;;;;;;;10.03;5.23;;;;;;;8.86;100.00;96364.34;5073836;28;20207;-71
2023/04/07 21:27:34;;;;;;;8.20;4.60;;;;;;;8.90;100.00;96358.63;5070969;28;20211;-71
2023/04/07 21:30:03;;;;;;;7.53;4.23;;;;;;;8.98;100.00;96363.06;5072012;28;20216;-71
2023/04/07 21:32:32;;;;;;;8.47;4.37;;;;;;;8.87;100.00;96358.94;5072254;28;20250;-71
2023/04/07 21:34:58;;;;;;;10.73;4.67;;;;;;;8.82;100.00;96365.66;5073351;28;20207;-72
2023/04/07 21:37:26;;;;;;;8.87;4.70;;;;;;;8.75;100.00;96364.69;5073625;28;20216;-71
2023/04/07 21:39:53;;;;;;;12.33;5.13;;;;;;;8.79;100.00;96358.91;5073971;28;20291;-71
2023/04/07 21:42:20;;;;;;;8.43;4.20;;;;;;;8.82;100.00;96352.53;5073829;28;20220;-71
2023/04/07 21:44:47;;;;;;;7.97;4.07;;;;;;;8.84;100.00;96361.88;5074317;28;20203;-71
2023/04/07 21:47:13;;;;;;;10.60;4.43;;;;;;;8.87;100.00;96361.56;5073831;28;20801;-71
2023/04/07 21:49:41;;;;;;;10.40;4.87;;;;;;;8.80;100.00;96352.69;5072940;28;20192;-71
2023/04/07 21:52:08;;;;;;;9.20;4.67;;;;;;;8.71;100.00;96356.28;5072564;28;20228;-71
2023/04/07 21:54:35;;;;;;;8.40;4.50;;;;;;;8.73;100.00;96356.97;5073430;28;20200;-71
2023/04/07 21:57:01;;;;;;;13.23;5.17;;;;;;;8.65;100.00;96351.69;5073024;28;20304;-72
2023/04/07 21:59:28;;;;;;;9.27;5.00;;;;;;;8.81;100.00;96356.97;5074708;28;20204;-71
2023/04/07 22:01:55;;;;;;;9.80;5.00;;;;;;;8.83;100.00;96354.16;5071446;28;20228;-72
2023/04/07 22:04:21;;;;;;;10.63;5.00;;;;;;;8.69;100.00;96353.03;5073994;28;20569;-70
2023/04/07 22:06:49;;;;;;;9.80;4.60;;;;;;;8.81;100.00;96356.16;5073531;28;20200;-70
2023/04/07 22:09:16;;;;;;;15.33;5.10;;;;;;;8.81;100.00;96361.41;5073568;28;20299;-70
2023/04/07 22:11:42;;;;;;;9.10;4.50;;;;;;;8.80;100.00;96359.75;5073286;28;20227;-71
2023/04/07 22:14:09;;;;;;;9.10;4.67;;;;;;;8.81;100.00;96362.22;5073340;28;21161;-71
2023/04/07 22:16:36;;;;;;;11.63;5.07;;;;;;;8.82;100.00;96363.88;5073937;28;20200;-71
2023/04/07 22:19:03;;;;;;;6.70;3.83;;;;;;;8.85;100.00;96363.53;5074235;28;20223;-70
2023/04/07 22:21:29;;;;;;;9.23;4.40;;;;;;;8.88;100.00;96365.81;5073416;28;21021;-71
2023/04/07 22:23:57;;;;;;;10.80;4.87;;;;;;;8.91;100.00;96357.63;5074451;28;20208;-72
2023/04/07 22:26:24;;;;;;;7.97;4.77;;;;;;;8.79;100.00;96369.44;5074965;28;20204;-71
2023/04/07 22:28:50;;;;;;;10.80;4.73;;;;;;;8.70;100.00;96378.28;5074089;28;20207;-70
2023/04/07 22:31:17;;;;;;;9.93;4.07;;;;;;;8.78;100.00;96366.97;5072976;28;20235;-71
2023/04/07 22:33:43;;;;;;;8.97;4.70;;;;;;;8.65;100.00;96377.13;5075637;28;20211;-71
2023/04/07 22:36:10;;;;;;;9.30;4.50;;;;;;;8.68;100.00;96371.56;5076864;28;20204;-71
2023/04/07 22:38:36;;;;;;;7.50;4.43;;;;;;;8.66;100.00;96370.91;5075967;28;20730;-72
2023/04/07 22:41:04;;;;;;;9.50;4.73;;;;;;;8.79;100.00;96368.63;5076960;28;20227;-72
2023/04/07 22:43:31;;;;;;;10.77;4.53;;;;;;;8.66;100.00;96371.72;5077502;28;20780;-72
2023/04/07 22:45:57;;;;;;;8.57;4.40;;;;;;;8.64;100.00;96376.34;5075393;28;20694;-71
2023/04/07 22:48:24;;;;;;;11.23;4.50;;;;;;;8.71;100.00;96381.75;5075332;28;20200;-71
2023/04/07 22:50:50;;;;;;;8.73;3.90;;;;;;;8.59;100.00;96389.13;5075692;28;20224;-70
2023/04/07 22:53:17;;;;;;;12.33;4.83;;;;;;;8.54;100.00;96383.53;5074865;28;20215;-70
2023/04/07 22:55:44;;;;;;;9.57;4.57;;;;;;;8.54;100.00;96386.16;5075269;28;20207;-71
2023/04/07 22:58:11;;;;;;;10.50;5.20;;;;;;;8.67;100.00;96386.50;5074829;28;20761;-71
2023/04/07 23:00:38;;;;;;;9.60;4.33;;;;;;;8.56;100.00;96384.16;5076519;28;20688;-71
2023/04/07 23:03:05;;;;;;;7.63;4.23;;;;;;;8.50;100.00;96386.63;5077522;28;20220;-71
2023/04/07 23:05:31;;;;;;;8.07;4.20;;;;;;;8.57;100.00;96385.81;5076248;28;20199;-71
2023/04/07 23:07:58;;;;;;;9.07;4.27;;;;;;;8.61;100.00;96384.50;5074572;28;20202;-71
2023/04/07 23:10:25;;;;;;;9.77;4.50;;;;;;;8.57;100.00;96387.63;5075260;28;20215;-71
2023/04/07 23:12:51;;;;;;;8.03;4.27;;;;;;;8.62;100.00;96390.59;5075377;28;20219;-71
2023/04/07 23:15:19;;;;;;;9.73;4.33;;;;;;;8.60;100.00;96388.16;5075387;28;20575;-71
2023/04/07 23:17:46;;;;;;;9.43;5.03;;;;;;;8.55;100.00;96395.69;5074426;28;20234;-71
2023/04/07 23:20:13;;;;;;;7.60;4.00;;;;;;;8.45;100.00;96390.72;5073420;28;20223;-71
2023/04/07 23:22:39;;;;;;;8.00;3.80;;;;;;;8.40;100.00;96393.84;5071912;28;20235;-71
2023/04/07 23:25:07;;;;;;;9.47;4.60;;;;;;;8.50;100.00;96395.34;5077154;28;20216;-71
2023/04/07 23:27:34;;;;;;;7.37;4.00;;;;;;;8.44;100.00;96389.91;5076308;28;20204;-72
2023/04/07 23:30:01;;;;;;;9.00;4.10;;;;;;;8.49;100.00;96392.88;5076610;28;20204;-72
2023/04/07 23:32:28;;;;;;;5.63;3.93;;;;;;;8.53;100.00;96396.81;5075496;28;20737;-72
2023/04/07 23:34:55;;;;;;;5.77;3.63;;;;;;;8.50;100.00;96389.25;5075086;28;20223;-71
2023/04/07 23:37:22;;;;;;;6.70;4.00;;;;;;;8.53;100.00;96384.50;5076472;28;20196;-72
2023/04/07 23:39:48;;;;;;;11.33;4.10;;;;;;;8.54;100.00;96393.19;5076129;28;20735;-72
2023/04/07 23:42:15;;;;;;;7.17;4.00;;;;;;;8.51;100.00;96397.00;5074748;28;20230;-71
2023/04/07 23:44:42;;;;;;;7.70;4.53;;;;;;;8.55;100.00;96394.84;5079692;28;20204;-72
2023/04/07 23:47:08;;;;;;;7.33;4.40;;;;;;;8.54;100.00;96398.44;5080050;28;20226;-72
2023/04/07 23:49:36;;;;;;;7.13;3.90;;;;;;;8.52;100.00;96409.13;5079269;28;20196;-72
2023/04/07 23:52:03;;;;;;;8.23;3.93;;;;;;;8.48;100.00;96405.16;5079994;28;20229;-72
2023/04/07 23:54:29;;;;;;;8.90;3.70;;;;;;;8.43;100.00;96392.69;5080212;28;20656;-72
2023/04/07 23:56:57;;;;;;;7.67;4.20;;;;;;;8.49;100.00;96398.13;5080993;28;20226;-72
2023/04/07 23:59:23;;;;;;;9.00;4.57;;;;;;;8.45;100.00;96401.22;5079741;28;20719;-72
